sensor_id;sensor_type;location;lat;lon;timestamp;pressure;altitude;pressure_sealevel;temperature;humidity
66524;BME280;53350;52.210;5.160;2023-02-12T00:02:19;103909.94;;;10.43;72.69
66524;BME280;53350;52.210;5.160;2023-02-12T00:04:47;103903.88;;;10.42;72.58
66524;BME280;53350;52.210;5.160;2023-02-12T00:07:14;103906.53;;;10.44;72.46
66524;BME280;53350;52.210;5.160;2023-02-12T00:09:40;103898.78;;;10.44;72.48
66524;BME280;53350;52.210;5.160;2023-02-12T00:12:07;103897.91;;;10.43;72.52
66524;BME280;53350;52.210;5.160;2023-02-12T00:14:35;103903.06;;;10.43;72.47
66524;BME280;53350;52.210;5.160;2023-02-12T00:17:02;103897.91;;;10.43;72.55
66524;BME280;53350;52.210;5.160;2023-02-12T00:19:29;103909.03;;;10.42;72.47
66524;BME280;53350;52.210;5.160;2023-02-12T00:21:56;103904.72;;;10.41;72.53
66524;BME280;53350;52.210;5.160;2023-02-12T00:24:23;103905.53;;;10.40;72.64
66524;BME280;53350;52.210;5.160;2023-02-12T00:26:49;103905.53;;;10.40;72.48
66524;BME280;53350;52.210;5.160;2023-02-12T00:29:16;103911.50;;;10.39;72.60
66524;BME280;53350;52.210;5.160;2023-02-12T00:31:42;103906.34;;;10.39;72.70
66524;BME280;53350;52.210;5.160;2023-02-12T00:34:10;103905.47;;;10.39;72.75
66524;BME280;53350;52.210;5.160;2023-02-12T00:36:36;103907.16;;;10.38;72.60
66524;BME280;53350;52.210;5.160;2023-02-12T00:39:04;103902.84;;;10.37;72.66
66524;BME280;53350;52.210;5.160;2023-02-12T00:41:30;103909.69;;;10.37;72.63
66524;BME280;53350;52.210;5.160;2023-02-12T00:43:57;103888.19;;;10.36;72.61
66524;BME280;53350;52.210;5.160;2023-02-12T00:46:23;103895.94;;;10.36;72.72
66524;BME280;53350;52.210;5.160;2023-02-12T00:48:50;103890.78;;;10.36;72.70
66524;BME280;53350;52.210;5.160;2023-02-12T00:51:16;103876.19;;;10.37;72.71
66524;BME280;53350;52.210;5.160;2023-02-12T00:53:42;103881.34;;;10.37;72.63
66524;BME280;53350;52.210;5.160;2023-02-12T00:56:10;103887.28;;;10.34;72.62
66524;BME280;53350;52.210;5.160;2023-02-12T00:58:37;103887.34;;;10.36;72.59
66524;BME280;53350;52.210;5.160;2023-02-12T01:01:03;103885.56;;;10.35;72.61
66524;BME280;53350;52.210;5.160;2023-02-12T01:03:30;103889.75;;;10.33;72.34
66524;BME280;53350;52.210;5.160;2023-02-12T01:05:56;103891.38;;;10.31;72.39
66524;BME280;53350;52.210;5.160;2023-02-12T01:08:23;103886.19;;;10.29;72.70
66524;BME280;53350;52.210;5.160;2023-02-12T01:10:54;103892.09;;;10.26;72.65
66524;BME280;53350;52.210;5.160;2023-02-12T01:13:23;103894.66;;;10.26;72.59
66524;BME280;53350;52.210;5.160;2023-02-12T01:16:00;103904.09;;;10.26;72.58
66524;BME280;53350;52.210;5.160;2023-02-12T01:18:27;103892.94;;;10.25;72.41
66524;BME280;53350;52.210;5.160;2023-02-12T01:20:53;103897.13;;;10.23;72.58
66524;BME280;53350;52.210;5.160;2023-02-12T01:23:20;103892.72;;;10.21;72.45
66524;BME280;53350;52.210;5.160;2023-02-12T01:25:46;103893.50;;;10.18;72.70
66524;BME280;53350;52.210;5.160;2023-02-12T01:28:13;103896.91;;;10.17;72.45
66524;BME280;53350;52.210;5.160;2023-02-12T01:30:40;103889.91;;;10.15;72.54
66524;BME280;53350;52.210;5.160;2023-02-12T01:33:07;103900.16;;;10.13;72.49
66524;BME280;53350;52.210;5.160;2023-02-12T01:35:33;103900.06;;;10.10;72.53
66524;BME280;53350;52.210;5.160;2023-02-12T01:38:00;103900.00;;;10.08;72.71
66524;BME280;53350;52.210;5.160;2023-02-12T01:40:26;103902.63;;;10.10;72.68
66524;BME280;53350;52.210;5.160;2023-02-12T01:42:52;103904.34;;;10.09;72.63
66524;BME280;53350;52.210;5.160;2023-02-12T01:45:46;103905.94;;;10.07;72.44
66524;BME280;53350;52.210;5.160;2023-02-12T01:48:15;103898.22;;;10.07;72.56
66524;BME280;53350;52.210;5.160;2023-02-12T01:50:43;103902.50;;;10.07;72.42
66524;BME280;53350;52.210;5.160;2023-02-12T01:53:12;103900.00;;;10.08;72.50
66524;BME280;53350;52.210;5.160;2023-02-12T01:55:45;103901.63;;;10.06;72.41
66524;BME280;53350;52.210;5.160;2023-02-12T01:58:12;103910.19;;;10.05;72.63
66524;BME280;53350;52.210;5.160;2023-02-12T02:00:39;103892.03;;;10.02;72.58
66524;BME280;53350;52.210;5.160;2023-02-12T02:03:07;103893.66;;;10.00;72.77
66524;BME280;53350;52.210;5.160;2023-02-12T02:05:37;103890.25;;;10.01;72.84
66524;BME280;53350;52.210;5.160;2023-02-12T02:08:06;103883.25;;;9.97;72.73
66524;BME280;53350;52.210;5.160;2023-02-12T02:10:33;103893.78;;;10.03;72.78
66524;BME280;53350;52.210;5.160;2023-02-12T02:12:59;103892.91;;;10.03;72.74
66524;BME280;53350;52.210;5.160;2023-02-12T02:15:46;103894.56;;;10.01;72.73
66524;BME280;53350;52.210;5.160;2023-02-12T02:18:18;103894.47;;;9.99;72.79
66524;BME280;53350;52.210;5.160;2023-02-12T02:21:10;103886.69;;;9.98;72.89
66524;BME280;53350;52.210;5.160;2023-02-12T02:23:58;103897.88;;;9.98;72.42
66524;BME280;53350;52.210;5.160;2023-02-12T02:26:41;103890.84;;;9.94;72.88
66524;BME280;53350;52.210;5.160;2023-02-12T02:29:25;103885.75;;;9.96;72.75
66524;BME280;53350;52.210;5.160;2023-02-12T02:32:02;103878.66;;;9.90;72.91
66524;BME280;53350;52.210;5.160;2023-02-12T02:34:37;103882.31;;;9.95;72.78
66524;BME280;53350;52.210;5.160;2023-02-12T02:37:12;103893.41;;;9.94;72.54
66524;BME280;53350;52.210;5.160;2023-02-12T02:39:46;103881.25;;;9.90;72.65
66524;BME280;53350;52.210;5.160;2023-02-12T02:42:16;103882.03;;;9.89;72.82
66524;BME280;53350;52.210;5.160;2023-02-12T02:44:49;103881.94;;;9.86;72.74
66524;BME280;53350;52.210;5.160;2023-02-12T02:47:20;103879.28;;;9.84;72.71
66524;BME280;53350;52.210;5.160;2023-02-12T02:49:53;103879.19;;;9.81;72.64
66524;BME280;53350;52.210;5.160;2023-02-12T02:52:28;103867.91;;;9.78;72.68
66524;BME280;53350;52.210;5.160;2023-02-12T02:55:02;103877.28;;;9.77;72.72
66524;BME280;53350;52.210;5.160;2023-02-12T02:57:35;103878.09;;;9.76;72.67
66524;BME280;53350;52.210;5.160;2023-02-12T03:00:07;103878.03;;;9.74;72.93
66524;BME280;53350;52.210;5.160;2023-02-12T03:02:41;103869.38;;;9.72;72.80
66524;BME280;53350;52.210;5.160;2023-02-12T03:05:13;103880.63;;;9.74;73.08
66524;BME280;53350;52.210;5.160;2023-02-12T03:07:46;103878.94;;;9.75;72.91
66524;BME280;53350;52.210;5.160;2023-02-12T03:10:16;103875.47;;;9.74;72.92
66524;BME280;53350;52.210;5.160;2023-02-12T03:12:48;103878.88;;;9.73;72.81
66524;BME280;53350;52.210;5.160;2023-02-12T03:15:20;103867.75;;;9.74;73.09
66524;BME280;53350;52.210;5.160;2023-02-12T03:17:50;103870.31;;;9.74;73.20
66524;BME280;53350;52.210;5.160;2023-02-12T03:20:19;103868.66;;;9.75;73.09
66524;BME280;53350;52.210;5.160;2023-02-12T03:22:49;103869.50;;;9.75;73.34
66524;BME280;53350;52.210;5.160;2023-02-12T03:25:20;103865.22;;;9.76;73.24
66524;BME280;53350;52.210;5.160;2023-02-12T03:27:56;103861.91;;;9.79;73.14
66524;BME280;53350;52.210;5.160;2023-02-12T03:30:41;103855.84;;;9.77;73.02
66524;BME280;53350;52.210;5.160;2023-02-12T03:33:17;103861.03;;;9.78;73.18
66524;BME280;53350;52.210;5.160;2023-02-12T03:35:54;103865.31;;;9.78;73.24
66524;BME280;53350;52.210;5.160;2023-02-12T03:38:31;103872.19;;;9.79;73.23
66524;BME280;53350;52.210;5.160;2023-02-12T03:41:04;103859.09;;;9.72;73.31
66524;BME280;53350;52.210;5.160;2023-02-12T03:43:35;103869.56;;;9.77;73.16
66524;BME280;53350;52.210;5.160;2023-02-12T03:46:09;103868.47;;;9.70;73.29
66524;BME280;53350;52.210;5.160;2023-02-12T03:48:44;103865.00;;;9.70;73.24
66524;BME280;53350;52.210;5.160;2023-02-12T03:51:18;103873.66;;;9.72;73.30
66524;BME280;53350;52.210;5.160;2023-02-12T03:53:48;103888.34;;;9.74;73.50
66524;BME280;53350;52.210;5.160;2023-02-12T03:56:17;103885.81;;;9.76;73.57
66524;BME280;53350;52.210;5.160;2023-02-12T03:58:45;103882.44;;;9.77;73.61
66524;BME280;53350;52.210;5.160;2023-02-12T04:01:12;103883.34;;;9.78;73.57
66524;BME280;53350;52.210;5.160;2023-02-12T04:03:40;103885.06;;;9.79;73.62
66524;BME280;53350;52.210;5.160;2023-02-12T04:06:19;103880.88;;;9.81;73.21
66524;BME280;53350;52.210;5.160;2023-02-12T04:08:46;103882.63;;;9.82;73.22
66524;BME280;53350;52.210;5.160;2023-02-12T04:11:21;103888.50;;;9.78;73.33
66524;BME280;53350;52.210;5.160;2023-02-12T04:14:05;103888.41;;;9.76;73.55
66524;BME280;53350;52.210;5.160;2023-02-12T04:16:39;103885.91;;;9.78;73.39
66524;BME280;53350;52.210;5.160;2023-02-12T04:19:09;103893.63;;;9.78;73.54
66524;BME280;53350;52.210;5.160;2023-02-12T04:21:50;103879.63;;;9.71;73.47
66524;BME280;53350;52.210;5.160;2023-02-12T04:24:29;103896.13;;;9.76;73.47
66524;BME280;53350;52.210;5.160;2023-02-12T04:27:01;103892.78;;;9.79;73.32
66524;BME280;53350;52.210;5.160;2023-02-12T04:29:34;103904.00;;;9.79;73.43
66524;BME280;53350;52.210;5.160;2023-02-12T04:32:11;103895.38;;;9.79;73.45
66524;BME280;53350;52.210;5.160;2023-02-12T04:34:45;103902.28;;;9.80;73.65
66524;BME280;53350;52.210;5.160;2023-02-12T04:37:20;103905.78;;;9.82;73.38
66524;BME280;53350;52.210;5.160;2023-02-12T04:39:48;103911.00;;;9.83;73.38
66524;BME280;53350;52.210;5.160;2023-02-12T04:42:15;103906.75;;;9.84;73.79
66524;BME280;53350;52.210;5.160;2023-02-12T04:44:42;103910.19;;;9.84;74.15
66524;BME280;53350;52.210;5.160;2023-02-12T04:47:10;103908.50;;;9.85;73.79
66524;BME280;53350;52.210;5.160;2023-02-12T04:49:36;103914.53;;;9.85;73.78
66524;BME280;53350;52.210;5.160;2023-02-12T04:52:03;103922.25;;;9.85;73.88
66524;BME280;53350;52.210;5.160;2023-02-12T04:54:31;103922.25;;;9.85;73.78
66524;BME280;53350;52.210;5.160;2023-02-12T04:56:57;103920.50;;;9.84;73.55
66524;BME280;53350;52.210;5.160;2023-02-12T04:59:24;103915.28;;;9.83;73.51
66524;BME280;53350;52.210;5.160;2023-02-12T05:01:50;103926.38;;;9.82;73.95
66524;BME280;53350;52.210;5.160;2023-02-12T05:04:17;103919.50;;;9.81;73.91
66524;BME280;53350;52.210;5.160;2023-02-12T05:06:44;103923.81;;;9.82;73.79
66524;BME280;53350;52.210;5.160;2023-02-12T05:09:14;103915.22;;;9.81;73.68
66524;BME280;53350;52.210;5.160;2023-02-12T05:11:42;103914.41;;;9.82;73.77
66524;BME280;53350;52.210;5.160;2023-02-12T05:14:09;103926.44;;;9.83;73.69
66524;BME280;53350;52.210;5.160;2023-02-12T05:16:35;103918.81;;;9.85;73.79
66524;BME280;53350;52.210;5.160;2023-02-12T05:19:01;103917.09;;;9.85;73.90
66524;BME280;53350;52.210;5.160;2023-02-12T05:21:28;103919.63;;;9.84;73.90
66524;BME280;53350;52.210;5.160;2023-02-12T05:23:54;103910.19;;;9.84;73.85
66524;BME280;53350;52.210;5.160;2023-02-12T05:26:21;103911.91;;;9.84;73.90
66524;BME280;53350;52.210;5.160;2023-02-12T05:28:49;103913.66;;;9.85;73.68
66524;BME280;53350;52.210;5.160;2023-02-12T05:31:17;103913.56;;;9.83;74.03
66524;BME280;53350;52.210;5.160;2023-02-12T05:33:44;103914.59;;;9.87;74.00
66524;BME280;53350;52.210;5.160;2023-02-12T05:36:13;103920.53;;;9.86;73.87
66524;BME280;53350;52.210;5.160;2023-02-12T05:38:40;103916.28;;;9.86;73.83
66524;BME280;53350;52.210;5.160;2023-02-12T05:41:08;103920.53;;;9.86;73.77
66524;BME280;53350;52.210;5.160;2023-02-12T05:43:35;103921.38;;;9.85;73.82
66524;BME280;53350;52.210;5.160;2023-02-12T05:46:04;103924.03;;;9.86;73.77
66524;BME280;53350;52.210;5.160;2023-02-12T05:48:31;103923.19;;;9.87;73.69
66524;BME280;53350;52.210;5.160;2023-02-12T05:51:02;103930.84;;;9.86;73.62
66524;BME280;53350;52.210;5.160;2023-02-12T05:53:29;103925.56;;;9.83;73.63
66524;BME280;53350;52.210;5.160;2023-02-12T05:56:06;103922.00;;;9.79;73.76
66524;BME280;53350;52.210;5.160;2023-02-12T05:58:33;103921.22;;;9.82;73.94
66524;BME280;53350;52.210;5.160;2023-02-12T06:00:59;103923.81;;;9.82;73.80
66524;BME280;53350;52.210;5.160;2023-02-12T06:03:27;103925.56;;;9.83;73.77
66524;BME280;53350;52.210;5.160;2023-02-12T06:05:54;103925.56;;;9.83;73.77
66524;BME280;53350;52.210;5.160;2023-02-12T06:08:20;103935.06;;;9.84;73.65
66524;BME280;53350;52.210;5.160;2023-02-12T06:10:46;103930.78;;;9.84;73.60
66524;BME280;53350;52.210;5.160;2023-02-12T06:13:13;103929.84;;;9.82;73.65
66524;BME280;53350;52.210;5.160;2023-02-12T06:15:39;103929.00;;;9.83;73.53
66524;BME280;53350;52.210;5.160;2023-02-12T06:18:06;103925.63;;;9.84;73.62
66524;BME280;53350;52.210;5.160;2023-02-12T06:20:33;103924.81;;;9.85;73.61
66524;BME280;53350;52.210;5.160;2023-02-12T06:23:00;103920.59;;;9.87;73.42
66524;BME280;53350;52.210;5.160;2023-02-12T06:25:26;103927.53;;;9.88;73.56
66524;BME280;53350;52.210;5.160;2023-02-12T06:27:53;103924.09;;;9.88;73.42
66524;BME280;53350;52.210;5.160;2023-02-12T06:30:19;103933.53;;;9.89;73.47
66524;BME280;53350;52.210;5.160;2023-02-12T06:32:48;103927.53;;;9.88;73.47
66524;BME280;53350;52.210;5.160;2023-02-12T06:35:14;103935.19;;;9.87;73.00
66524;BME280;53350;52.210;5.160;2023-02-12T06:37:43;103930.84;;;9.86;73.13
66524;BME280;53350;52.210;5.160;2023-02-12T06:40:10;103924.78;;;9.84;73.38
66524;BME280;53350;52.210;5.160;2023-02-12T06:42:36;103923.81;;;9.82;73.33
66524;BME280;53350;52.210;5.160;2023-02-12T06:45:03;103927.22;;;9.81;73.36
66524;BME280;53350;52.210;5.160;2023-02-12T06:47:30;103929.78;;;9.81;73.40
66524;BME280;53350;52.210;5.160;2023-02-12T06:49:56;103934.09;;;9.82;73.26
66524;BME280;53350;52.210;5.160;2023-02-12T06:52:23;103931.53;;;9.82;73.35
66524;BME280;53350;52.210;5.160;2023-02-12T06:54:50;103934.09;;;9.82;73.41
66524;BME280;53350;52.210;5.160;2023-02-12T06:57:17;103937.59;;;9.82;73.39
66524;BME280;53350;52.210;5.160;2023-02-12T06:59:43;103935.00;;;9.82;73.51
66524;BME280;53350;52.210;5.160;2023-02-12T07:02:10;103942.78;;;9.84;73.32
66524;BME280;53350;52.210;5.160;2023-02-12T07:04:37;103943.72;;;9.86;73.37
66524;BME280;53350;52.210;5.160;2023-02-12T07:07:04;103940.28;;;9.85;73.14
66524;BME280;53350;52.210;5.160;2023-02-12T07:09:30;103942.91;;;9.87;73.25
66524;BME280;53350;52.210;5.160;2023-02-12T07:11:58;103936.97;;;9.88;73.15
66524;BME280;53350;52.210;5.160;2023-02-12T07:14:25;103945.53;;;9.88;73.21
66524;BME280;53350;52.210;5.160;2023-02-12T07:16:52;103949.00;;;9.89;73.01
66524;BME280;53350;52.210;5.160;2023-02-12T07:19:20;103947.25;;;9.88;73.16
66524;BME280;53350;52.210;5.160;2023-02-12T07:21:46;103951.44;;;9.86;73.15
66524;BME280;53350;52.210;5.160;2023-02-12T07:24:14;103953.16;;;9.85;73.14
66524;BME280;53350;52.210;5.160;2023-02-12T07:26:42;103954.00;;;9.86;73.29
66524;BME280;53350;52.210;5.160;2023-02-12T07:29:11;103957.56;;;9.88;73.18
66524;BME280;53350;52.210;5.160;2023-02-12T07:31:37;103967.00;;;9.89;73.00
66524;BME280;53350;52.210;5.160;2023-02-12T07:34:04;103961.88;;;9.89;72.60
66524;BME280;53350;52.210;5.160;2023-02-12T07:36:31;103960.06;;;9.86;72.58
66524;BME280;53350;52.210;5.160;2023-02-12T07:38:59;103964.25;;;9.84;72.32
66524;BME280;53350;52.210;5.160;2023-02-12T07:41:27;103968.59;;;9.85;72.24
66524;BME280;53350;52.210;5.160;2023-02-12T07:43:55;103970.31;;;9.85;72.31
66524;BME280;53350;52.210;5.160;2023-02-12T07:46:24;103971.97;;;9.84;72.25
66524;BME280;53350;52.210;5.160;2023-02-12T07:48:54;103978.03;;;9.85;72.53
66524;BME280;53350;52.210;5.160;2023-02-12T07:51:22;103979.75;;;9.86;72.58
66524;BME280;53350;52.210;5.160;2023-02-12T07:53:49;103975.63;;;9.89;72.66
66524;BME280;53350;52.210;5.160;2023-02-12T07:56:18;103983.41;;;9.91;72.67
66524;BME280;53350;52.210;5.160;2023-02-12T07:58:46;103987.88;;;9.95;72.58
66524;BME280;53350;52.210;5.160;2023-02-12T08:01:15;103978.50;;;9.97;72.56
66524;BME280;53350;52.210;5.160;2023-02-12T08:03:44;103983.78;;;10.00;72.70
66524;BME280;53350;52.210;5.160;2023-02-12T08:06:12;103981.34;;;10.03;72.58
66524;BME280;53350;52.210;5.160;2023-02-12T08:08:40;103989.19;;;10.06;72.55
66524;BME280;53350;52.210;5.160;2023-02-12T08:11:08;103991.91;;;10.09;72.47
66524;BME280;53350;52.210;5.160;2023-02-12T08:13:36;103985.09;;;10.12;72.31
66524;BME280;53350;52.210;5.160;2023-02-12T08:16:05;103992.09;;;10.14;72.13
66524;BME280;53350;52.210;5.160;2023-02-12T08:18:32;103998.09;;;10.15;72.08
66524;BME280;53350;52.210;5.160;2023-02-12T08:21:05;103997.34;;;10.17;72.08
66524;BME280;53350;52.210;5.160;2023-02-12T08:23:32;104002.44;;;10.16;72.06
66524;BME280;53350;52.210;5.160;2023-02-12T08:26:07;103998.84;;;10.12;72.08
66524;BME280;53350;52.210;5.160;2023-02-12T08:28:35;104000.63;;;10.13;71.72
66524;BME280;53350;52.210;5.160;2023-02-12T08:31:03;104003.31;;;10.16;71.73
66524;BME280;53350;52.210;5.160;2023-02-12T08:33:29;104016.44;;;10.22;71.53
66524;BME280;53350;52.210;5.160;2023-02-12T08:36:01;104010.53;;;10.25;71.56
66524;BME280;53350;52.210;5.160;2023-02-12T08:38:29;104011.38;;;10.24;71.43
66524;BME280;53350;52.210;5.160;2023-02-12T08:40:59;104013.88;;;10.22;71.34
66524;BME280;53350;52.210;5.160;2023-02-12T08:43:26;104018.16;;;10.22;71.26
66524;BME280;53350;52.210;5.160;2023-02-12T08:45:52;104022.50;;;10.23;71.01
66524;BME280;53350;52.210;5.160;2023-02-12T08:48:19;104022.44;;;10.21;71.17
66524;BME280;53350;52.210;5.160;2023-02-12T08:50:45;104019.00;;;10.22;71.04
66524;BME280;53350;52.210;5.160;2023-02-12T08:53:12;104034.56;;;10.24;70.99
66524;BME280;53350;52.210;5.160;2023-02-12T08:55:47;104032.09;;;10.27;71.04
66524;BME280;53350;52.210;5.160;2023-02-12T08:58:13;104030.53;;;10.31;70.79
66524;BME280;53350;52.210;5.160;2023-02-12T09:00:40;104026.41;;;10.34;70.61
66524;BME280;53350;52.210;5.160;2023-02-12T09:03:06;104031.69;;;10.37;70.54
66524;BME280;53350;52.210;5.160;2023-02-12T09:05:37;104030.03;;;10.39;70.57
66524;BME280;53350;52.210;5.160;2023-02-12T09:08:03;104037.81;;;10.41;70.43
66524;BME280;53350;52.210;5.160;2023-02-12T09:10:30;104034.44;;;10.42;70.35
66524;BME280;53350;52.210;5.160;2023-02-12T09:12:58;104029.34;;;10.43;70.53
66524;BME280;53350;52.210;5.160;2023-02-12T09:15:24;104029.41;;;10.45;70.19
66524;BME280;53350;52.210;5.160;2023-02-12T09:17:50;104036.28;;;10.44;70.17
66524;BME280;53350;52.210;5.160;2023-02-12T09:20:17;104033.56;;;10.41;70.07
66524;BME280;53350;52.210;5.160;2023-02-12T09:22:44;104032.69;;;10.41;70.18
66524;BME280;53350;52.210;5.160;2023-02-12T09:25:10;104043.16;;;10.46;70.12
66524;BME280;53350;52.210;5.160;2023-02-12T09:27:36;104042.47;;;10.50;70.04
66524;BME280;53350;52.210;5.160;2023-02-12T09:30:05;104044.25;;;10.51;70.23
66524;BME280;53350;52.210;5.160;2023-02-12T09:32:32;104041.72;;;10.52;70.44
66524;BME280;53350;52.210;5.160;2023-02-12T09:34:58;104040.00;;;10.53;70.22
66524;BME280;53350;52.210;5.160;2023-02-12T09:37:25;104036.63;;;10.54;70.48
66524;BME280;53350;52.210;5.160;2023-02-12T09:39:51;104040.09;;;10.54;70.34
66524;BME280;53350;52.210;5.160;2023-02-12T09:42:47;104037.59;;;10.56;70.48
66524;BME280;53350;52.210;5.160;2023-02-12T09:45:21;104042.97;;;10.62;70.65
66524;BME280;53350;52.210;5.160;2023-02-12T09:47:54;104038.69;;;10.63;70.24
66524;BME280;53350;52.210;5.160;2023-02-12T09:50:32;104039.63;;;10.65;70.41
66524;BME280;53350;52.210;5.160;2023-02-12T09:53:02;104035.28;;;10.64;70.19
66524;BME280;53350;52.210;5.160;2023-02-12T09:55:31;104032.66;;;10.62;70.08
66524;BME280;53350;52.210;5.160;2023-02-12T09:57:59;104039.63;;;10.65;70.00
66524;BME280;53350;52.210;5.160;2023-02-12T10:00:30;104042.38;;;10.69;69.42
66524;BME280;53350;52.210;5.160;2023-02-12T10:03:00;104041.63;;;10.72;69.74
66524;BME280;53350;52.210;5.160;2023-02-12T10:05:30;104034.81;;;10.74;69.63
66524;BME280;53350;52.210;5.160;2023-02-12T10:08:12;104035.81;;;10.77;69.71
66524;BME280;53350;52.210;5.160;2023-02-12T10:10:48;104029.78;;;10.77;69.56
66524;BME280;53350;52.210;5.160;2023-02-12T10:13:23;104038.53;;;10.81;69.33
66524;BME280;53350;52.210;5.160;2023-02-12T10:15:57;104034.31;;;10.83;69.18
66524;BME280;53350;52.210;5.160;2023-02-12T10:18:41;104034.41;;;10.86;69.46
66524;BME280;53350;52.210;5.160;2023-02-12T10:21:18;104035.38;;;10.88;69.37
66524;BME280;53350;52.210;5.160;2023-02-12T10:24:17;104034.53;;;10.89;69.48
66524;BME280;53350;52.210;5.160;2023-02-12T10:26:52;104033.72;;;10.90;69.12
66524;BME280;53350;52.210;5.160;2023-02-12T10:29:23;104032.97;;;10.92;69.02
66524;BME280;53350;52.210;5.160;2023-02-12T10:31:54;104030.44;;;10.94;69.18
66524;BME280;53350;52.210;5.160;2023-02-12T10:34:24;104033.06;;;10.95;69.14
66524;BME280;53350;52.210;5.160;2023-02-12T10:36:53;104028.59;;;10.91;69.03
66524;BME280;53350;52.210;5.160;2023-02-12T10:39:25;104029.69;;;10.96;68.89
66524;BME280;53350;52.210;5.160;2023-02-12T10:41:56;104037.41;;;10.96;68.78
66524;BME280;53350;52.210;5.160;2023-02-12T10:44:24;104037.53;;;11.00;68.72
66524;BME280;53350;52.210;5.160;2023-02-12T10:46:53;104039.41;;;11.04;68.81
66524;BME280;53350;52.210;5.160;2023-02-12T10:49:20;104036.19;;;11.09;69.34
66524;BME280;53350;52.210;5.160;2023-02-12T10:51:58;104035.44;;;11.13;68.62
66524;BME280;53350;52.210;5.160;2023-02-12T10:54:35;104019.91;;;11.12;68.49
66524;BME280;53350;52.210;5.160;2023-02-12T10:57:13;104025.31;;;11.18;68.31
66524;BME280;53350;52.210;5.160;2023-02-12T10:59:40;104025.31;;;11.18;67.92
66524;BME280;53350;52.210;5.160;2023-02-12T11:02:23;104035.59;;;11.17;67.79
66524;BME280;53350;52.210;5.160;2023-02-12T11:04:51;104025.38;;;11.20;67.43
66524;BME280;53350;52.210;5.160;2023-02-12T11:07:18;104027.94;;;11.20;67.37
66524;BME280;53350;52.210;5.160;2023-02-12T11:09:47;104024.63;;;11.24;66.73
66524;BME280;53350;52.210;5.160;2023-02-12T11:12:18;104023.00;;;11.26;66.84
66524;BME280;53350;52.210;5.160;2023-02-12T11:14:48;104023.09;;;11.29;66.94
66524;BME280;53350;52.210;5.160;2023-02-12T11:17:24;104025.75;;;11.30;66.97
66524;BME280;53350;52.210;5.160;2023-02-12T11:20:22;104021.41;;;11.29;66.98
66524;BME280;53350;52.210;5.160;2023-02-12T11:22:51;104020.63;;;11.32;66.61
66524;BME280;53350;52.210;5.160;2023-02-12T11:25:17;104017.28;;;11.35;66.48
66524;BME280;53350;52.210;5.160;2023-02-12T11:27:44;104022.41;;;11.33;67.40
66524;BME280;53350;52.210;5.160;2023-02-12T11:30:23;104022.28;;;11.30;66.48
66524;BME280;53350;52.210;5.160;2023-02-12T11:32:51;104017.84;;;11.26;66.53
66524;BME280;53350;52.210;5.160;2023-02-12T11:35:19;104021.25;;;11.25;66.69
66524;BME280;53350;52.210;5.160;2023-02-12T11:37:52;104014.44;;;11.27;66.59
66524;BME280;53350;52.210;5.160;2023-02-12T11:40:22;104007.56;;;11.27;66.55
66524;BME280;53350;52.210;5.160;2023-02-12T11:42:51;104008.50;;;11.29;66.72
66524;BME280;53350;52.210;5.160;2023-02-12T11:45:21;103999.94;;;11.30;66.85
66524;BME280;53350;52.210;5.160;2023-02-12T11:47:53;104011.41;;;11.39;66.50
66524;BME280;53350;52.210;5.160;2023-02-12T11:50:25;104015.03;;;11.44;66.58
66524;BME280;53350;52.210;5.160;2023-02-12T11:52:54;104012.38;;;11.42;66.51
66524;BME280;53350;52.210;5.160;2023-02-12T11:55:23;104009.88;;;11.44;65.95
66524;BME280;53350;52.210;5.160;2023-02-12T11:57:52;103992.59;;;11.41;66.16
66524;BME280;53350;52.210;5.160;2023-02-12T12:00:21;104003.13;;;11.47;66.13
66524;BME280;53350;52.210;5.160;2023-02-12T12:02:57;104000.59;;;11.49;66.27
66524;BME280;53350;52.210;5.160;2023-02-12T12:05:31;104004.88;;;11.48;66.33
66524;BME280;53350;52.210;5.160;2023-02-12T12:08:03;103990.13;;;11.44;66.38
66524;BME280;53350;52.210;5.160;2023-02-12T12:10:36;103998.88;;;11.49;65.93
66524;BME280;53350;52.210;5.160;2023-02-12T12:13:10;103996.34;;;11.51;65.92
66524;BME280;53350;52.210;5.160;2023-02-12T12:15:42;103993.72;;;11.49;65.76
66524;BME280;53350;52.210;5.160;2023-02-12T12:18:32;104000.59;;;11.49;66.13
66524;BME280;53350;52.210;5.160;2023-02-12T12:21:24;103997.97;;;11.47;65.84
66524;BME280;53350;52.210;5.160;2023-02-12T12:23:56;103993.59;;;11.46;65.91
66524;BME280;53350;52.210;5.160;2023-02-12T12:26:26;103982.25;;;11.41;65.76
66524;BME280;53350;52.210;5.160;2023-02-12T12:28:58;103989.41;;;11.48;65.82
66524;BME280;53350;52.210;5.160;2023-02-12T12:31:29;103968.63;;;11.45;65.73
66524;BME280;53350;52.210;5.160;2023-02-12T12:34:04;103984.22;;;11.48;65.94
66524;BME280;53350;52.210;5.160;2023-02-12T12:39:35;103974.78;;;11.49;66.02
66524;BME280;53350;52.210;5.160;2023-02-12T12:42:18;103970.59;;;11.53;65.48
66524;BME280;53350;52.210;5.160;2023-02-12T12:45:02;103981.03;;;11.56;65.25
66524;BME280;53350;52.210;5.160;2023-02-12T12:47:40;103970.72;;;11.56;65.14
66524;BME280;53350;52.210;5.160;2023-02-12T12:50:27;103972.44;;;11.57;65.22
66524;BME280;53350;52.210;5.160;2023-02-12T12:53:03;103974.25;;;11.59;64.83
66524;BME280;53350;52.210;5.160;2023-02-12T12:55:47;103963.97;;;11.61;65.35
66524;BME280;53350;52.210;5.160;2023-02-12T12:58:22;103965.81;;;11.63;64.93
66524;BME280;53350;52.210;5.160;2023-02-12T13:01:04;103967.56;;;11.64;64.98
66524;BME280;53350;52.210;5.160;2023-02-12T13:03:46;103961.41;;;11.61;65.50
66524;BME280;53350;52.210;5.160;2023-02-12T13:06:29;103963.94;;;11.59;65.52
66524;BME280;53350;52.210;5.160;2023-02-12T13:09:22;103958.63;;;11.55;65.64
66524;BME280;53350;52.210;5.160;2023-02-12T13:12:03;103957.63;;;11.51;65.40
66524;BME280;53350;52.210;5.160;2023-02-12T13:14:41;103958.63;;;11.55;65.17
66524;BME280;53350;52.210;5.160;2023-02-12T13:17:14;103960.38;;;11.56;65.42